sensor_id;sensor_type;location;lat;lon;timestamp;pressure;altitude;pressure_sealevel;temperature
66403;BMP180;53212;52.112;5.144;2023-04-25T00:02:00;101068.00;;;6.40
66403;BMP180;53212;52.112;5.144;2023-04-25T00:04:27;101072.40;;;6.44
66403;BMP180;53212;52.112;5.144;2023-04-25T00:06:53;101078.20;;;6.42
66403;BMP180;53212;52.112;5.144;2023-04-25T00:09:19;101080.00;;;6.40
66403;BMP180;53212;52.112;5.144;2023-04-25T00:11:45;101075.80;;;6.40
66403;BMP180;53212;52.112;5.144;2023-04-25T00:14:10;101078.20;;;6.40
66403;BMP180;53212;52.112;5.144;2023-04-25T00:16:36;101065.40;;;6.40
66403;BMP180;53212;52.112;5.144;2023-04-25T00:19:02;101067.20;;;6.40
66403;BMP180;53212;52.112;5.144;2023-04-25T00:21:28;101068.80;;;6.30
66403;BMP180;53212;52.112;5.144;2023-04-25T00:23:56;101068.20;;;6.28
66403;BMP180;53212;52.112;5.144;2023-04-25T00:26:22;101070.40;;;6.20
66403;BMP180;53212;52.112;5.144;2023-04-25T00:28:48;101070.80;;;6.10
66403;BMP180;53212;52.112;5.144;2023-04-25T00:31:14;101073.80;;;6.10
66403;BMP180;53212;52.112;5.144;2023-04-25T00:33:39;101075.80;;;6.08
66403;BMP180;53212;52.112;5.144;2023-04-25T00:36:06;101074.00;;;6.00
66403;BMP180;53212;52.112;5.144;2023-04-25T00:38:31;101075.60;;;5.90
66403;BMP180;53212;52.112;5.144;2023-04-25T00:40:57;101077.40;;;5.72
66403;BMP180;53212;52.112;5.144;2023-04-25T00:43:26;101078.40;;;5.70
66403;BMP180;53212;52.112;5.144;2023-04-25T00:45:52;101080.40;;;5.60
66403;BMP180;53212;52.112;5.144;2023-04-25T00:48:17;101076.00;;;5.58
66403;BMP180;53212;52.112;5.144;2023-04-25T00:50:52;101076.80;;;5.50
66403;BMP180;53212;52.112;5.144;2023-04-25T00:53:19;101075.40;;;5.50
66403;BMP180;53212;52.112;5.144;2023-04-25T00:55:45;101072.80;;;5.40
66403;BMP180;53212;52.112;5.144;2023-04-25T00:58:10;101075.20;;;5.32
66403;BMP180;53212;52.112;5.144;2023-04-25T01:00:36;101075.80;;;5.30
66403;BMP180;53212;52.112;5.144;2023-04-25T01:03:03;101077.80;;;5.24
66403;BMP180;53212;52.112;5.144;2023-04-25T01:05:29;101078.40;;;5.20
66403;BMP180;53212;52.112;5.144;2023-04-25T01:07:55;101078.60;;;5.20
66403;BMP180;53212;52.112;5.144;2023-04-25T01:10:21;101084.40;;;5.20
66403;BMP180;53212;52.112;5.144;2023-04-25T01:12:47;101082.40;;;5.20
66403;BMP180;53212;52.112;5.144;2023-04-25T01:15:12;101079.80;;;5.16
66403;BMP180;53212;52.112;5.144;2023-04-25T01:17:38;101080.00;;;5.10
66403;BMP180;53212;52.112;5.144;2023-04-25T01:20:05;101082.20;;;5.10
66403;BMP180;53212;52.112;5.144;2023-04-25T01:22:33;101085.00;;;5.00
66403;BMP180;53212;52.112;5.144;2023-04-25T01:25:00;101078.40;;;5.00
66403;BMP180;53212;52.112;5.144;2023-04-25T01:27:25;101074.80;;;5.00
66403;BMP180;53212;52.112;5.144;2023-04-25T01:29:51;101084.40;;;5.00
66403;BMP180;53212;52.112;5.144;2023-04-25T01:32:17;101091.20;;;5.00
66403;BMP180;53212;52.112;5.144;2023-04-25T01:34:43;101089.80;;;5.00
66403;BMP180;53212;52.112;5.144;2023-04-25T01:37:08;101092.60;;;5.02
66403;BMP180;53212;52.112;5.144;2023-04-25T01:39:34;101095.00;;;5.00
66403;BMP180;53212;52.112;5.144;2023-04-25T01:42:00;101096.40;;;5.00
66403;BMP180;53212;52.112;5.144;2023-04-25T01:44:27;101096.40;;;5.00
66403;BMP180;53212;52.112;5.144;2023-04-25T01:46:53;101099.20;;;5.00
66403;BMP180;53212;52.112;5.144;2023-04-25T01:49:19;101097.00;;;5.00
66403;BMP180;53212;52.112;5.144;2023-04-25T01:51:44;101100.60;;;5.00
66403;BMP180;53212;52.112;5.144;2023-04-25T01:54:10;101102.80;;;4.98
66403;BMP180;53212;52.112;5.144;2023-04-25T01:56:37;101104.20;;;4.90
66403;BMP180;53212;52.112;5.144;2023-04-25T01:59:05;101111.40;;;4.80
66403;BMP180;53212;52.112;5.144;2023-04-25T02:01:31;101111.80;;;4.80
66403;BMP180;53212;52.112;5.144;2023-04-25T02:03:57;101114.60;;;4.78
66403;BMP180;53212;52.112;5.144;2023-04-25T02:06:22;101115.00;;;4.72
66403;BMP180;53212;52.112;5.144;2023-04-25T02:08:48;101113.40;;;4.72
66403;BMP180;53212;52.112;5.144;2023-04-25T02:11:13;101118.20;;;4.80
66403;BMP180;53212;52.112;5.144;2023-04-25T02:13:39;101122.20;;;4.80
66403;BMP180;53212;52.112;5.144;2023-04-25T02:16:05;101121.60;;;4.80
66403;BMP180;53212;52.112;5.144;2023-04-25T02:18:30;101121.20;;;4.72
66403;BMP180;53212;52.112;5.144;2023-04-25T02:20:58;101118.80;;;4.70
66403;BMP180;53212;52.112;5.144;2023-04-25T02:23:23;101120.60;;;4.70
66403;BMP180;53212;52.112;5.144;2023-04-25T02:25:49;101120.80;;;4.70
66403;BMP180;53212;52.112;5.144;2023-04-25T02:28:15;101121.60;;;4.70
66403;BMP180;53212;52.112;5.144;2023-04-25T02:30:40;101121.60;;;4.70
66403;BMP180;53212;52.112;5.144;2023-04-25T02:33:06;101120.80;;;4.78
66403;BMP180;53212;52.112;5.144;2023-04-25T02:35:31;101118.40;;;4.80
66403;BMP180;53212;52.112;5.144;2023-04-25T02:37:57;101122.40;;;4.80
66403;BMP180;53212;52.112;5.144;2023-04-25T02:40:22;101119.60;;;4.80
66403;BMP180;53212;52.112;5.144;2023-04-25T02:42:48;101121.00;;;4.90
66403;BMP180;53212;52.112;5.144;2023-04-25T02:45:14;101117.60;;;4.90
66403;BMP180;53212;52.112;5.144;2023-04-25T02:47:39;101119.60;;;4.90
66403;BMP180;53212;52.112;5.144;2023-04-25T02:50:05;101128.80;;;4.94
66403;BMP180;53212;52.112;5.144;2023-04-25T02:52:31;101124.20;;;5.00
66403;BMP180;53212;52.112;5.144;2023-04-25T02:54:57;101121.60;;;4.98
66403;BMP180;53212;52.112;5.144;2023-04-25T02:57:22;101119.20;;;5.00
66403;BMP180;53212;52.112;5.144;2023-04-25T02:59:47;101130.20;;;5.00
66403;BMP180;53212;52.112;5.144;2023-04-25T03:02:13;101125.60;;;5.00
66403;BMP180;53212;52.112;5.144;2023-04-25T03:04:39;101130.40;;;5.10
66403;BMP180;53212;52.112;5.144;2023-04-25T03:07:05;101135.20;;;5.16
66403;BMP180;53212;52.112;5.144;2023-04-25T03:09:30;101136.80;;;5.20
66403;BMP180;53212;52.112;5.144;2023-04-25T03:11:56;101135.60;;;5.22
66403;BMP180;53212;52.112;5.144;2023-04-25T03:14:21;101136.60;;;5.30
66403;BMP180;53212;52.112;5.144;2023-04-25T03:16:47;101138.40;;;5.30
66403;BMP180;53212;52.112;5.144;2023-04-25T03:19:12;101140.60;;;5.40
66403;BMP180;53212;52.112;5.144;2023-04-25T03:21:38;101154.00;;;5.40
66403;BMP180;53212;52.112;5.144;2023-04-25T03:24:05;101173.40;;;5.40
66403;BMP180;53212;52.112;5.144;2023-04-25T03:26:31;101185.40;;;5.22
66403;BMP180;53212;52.112;5.144;2023-04-25T03:28:56;101187.00;;;5.10
66403;BMP180;53212;52.112;5.144;2023-04-25T03:31:21;101181.60;;;5.00
66403;BMP180;53212;52.112;5.144;2023-04-25T03:33:47;101146.00;;;4.98
66403;BMP180;53212;52.112;5.144;2023-04-25T03:36:13;101144.20;;;4.90
66403;BMP180;53212;52.112;5.144;2023-04-25T03:38:38;101138.40;;;4.82
66403;BMP180;53212;52.112;5.144;2023-04-25T03:41:04;101135.80;;;4.80
66403;BMP180;53212;52.112;5.144;2023-04-25T03:43:29;101140.00;;;4.80
66403;BMP180;53212;52.112;5.144;2023-04-25T03:45:54;101138.40;;;4.80
66403;BMP180;53212;52.112;5.144;2023-04-25T03:48:20;101141.80;;;4.90
66403;BMP180;53212;52.112;5.144;2023-04-25T03:50:52;101145.40;;;4.90
66403;BMP180;53212;52.112;5.144;2023-04-25T03:53:17;101144.20;;;4.90
66403;BMP180;53212;52.112;5.144;2023-04-25T03:55:42;101146.20;;;4.90
66403;BMP180;53212;52.112;5.144;2023-04-25T03:58:08;101152.40;;;4.84
66403;BMP180;53212;52.112;5.144;2023-04-25T04:00:35;101156.00;;;4.80
66403;BMP180;53212;52.112;5.144;2023-04-25T04:03:00;101160.80;;;4.80
66403;BMP180;53212;52.112;5.144;2023-04-25T04:05:26;101160.00;;;4.70
66403;BMP180;53212;52.112;5.144;2023-04-25T04:07:51;101170.60;;;4.70
66403;BMP180;53212;52.112;5.144;2023-04-25T04:10:17;101173.60;;;4.70
66403;BMP180;53212;52.112;5.144;2023-04-25T04:12:42;101175.20;;;4.70
66403;BMP180;53212;52.112;5.144;2023-04-25T04:15:08;101178.80;;;4.70
66403;BMP180;53212;52.112;5.144;2023-04-25T04:17:35;101173.20;;;4.70
66403;BMP180;53212;52.112;5.144;2023-04-25T04:20:00;101185.00;;;4.70
66403;BMP180;53212;52.112;5.144;2023-04-25T04:22:25;101184.20;;;4.66
66403;BMP180;53212;52.112;5.144;2023-04-25T04:24:51;101185.40;;;4.68
66403;BMP180;53212;52.112;5.144;2023-04-25T04:27:18;101195.40;;;4.66
66403;BMP180;53212;52.112;5.144;2023-04-25T04:29:45;101192.20;;;4.70
66403;BMP180;53212;52.112;5.144;2023-04-25T04:32:12;101198.20;;;4.70
66403;BMP180;53212;52.112;5.144;2023-04-25T04:34:37;101200.00;;;4.62
66403;BMP180;53212;52.112;5.144;2023-04-25T04:37:05;101202.00;;;4.60
66403;BMP180;53212;52.112;5.144;2023-04-25T04:39:30;101203.00;;;4.54
66403;BMP180;53212;52.112;5.144;2023-04-25T04:41:56;101203.60;;;4.60
66403;BMP180;53212;52.112;5.144;2023-04-25T04:44:21;101204.60;;;4.60
66403;BMP180;53212;52.112;5.144;2023-04-25T04:46:48;101203.60;;;4.60
66403;BMP180;53212;52.112;5.144;2023-04-25T04:49:13;101209.00;;;4.70
66403;BMP180;53212;52.112;5.144;2023-04-25T04:51:39;101207.40;;;4.70
66403;BMP180;53212;52.112;5.144;2023-04-25T04:54:06;101204.80;;;4.70
66403;BMP180;53212;52.112;5.144;2023-04-25T04:56:32;101210.40;;;4.70
66403;BMP180;53212;52.112;5.144;2023-04-25T04:58:58;101215.00;;;4.76
66403;BMP180;53212;52.112;5.144;2023-04-25T05:01:24;101216.80;;;4.80
66403;BMP180;53212;52.112;5.144;2023-04-25T05:03:51;101218.40;;;4.80
66403;BMP180;53212;52.112;5.144;2023-04-25T05:06:18;101231.00;;;4.86
66403;BMP180;53212;52.112;5.144;2023-04-25T05:08:43;101232.60;;;4.90
66403;BMP180;53212;52.112;5.144;2023-04-25T05:11:09;101232.20;;;4.96
66403;BMP180;53212;52.112;5.144;2023-04-25T05:13:35;101231.00;;;5.00
66403;BMP180;53212;52.112;5.144;2023-04-25T05:16:00;101232.40;;;5.00
66403;BMP180;53212;52.112;5.144;2023-04-25T05:18:25;101232.60;;;5.00
66403;BMP180;53212;52.112;5.144;2023-04-25T05:20:51;101235.20;;;5.10
66403;BMP180;53212;52.112;5.144;2023-04-25T05:23:16;101233.40;;;5.10
66403;BMP180;53212;52.112;5.144;2023-04-25T05:25:42;101241.20;;;5.20
66403;BMP180;53212;52.112;5.144;2023-04-25T05:28:07;101241.40;;;5.22
66403;BMP180;53212;52.112;5.144;2023-04-25T05:30:34;101245.80;;;5.30
66403;BMP180;53212;52.112;5.144;2023-04-25T05:33:00;101247.60;;;5.30
66403;BMP180;53212;52.112;5.144;2023-04-25T05:35:25;101249.20;;;5.38
66403;BMP180;53212;52.112;5.144;2023-04-25T05:37:51;101253.20;;;5.40
66403;BMP180;53212;52.112;5.144;2023-04-25T05:40:16;101248.80;;;5.40
66403;BMP180;53212;52.112;5.144;2023-04-25T05:42:42;101252.80;;;5.50
66403;BMP180;53212;52.112;5.144;2023-04-25T05:45:07;101255.80;;;5.56
66403;BMP180;53212;52.112;5.144;2023-04-25T05:47:33;101260.20;;;5.60
66403;BMP180;53212;52.112;5.144;2023-04-25T05:49:58;101264.40;;;5.70
66403;BMP180;53212;52.112;5.144;2023-04-25T05:52:24;101263.40;;;5.80
66403;BMP180;53212;52.112;5.144;2023-04-25T05:54:50;101268.00;;;5.90
66403;BMP180;53212;52.112;5.144;2023-04-25T05:57:26;101268.60;;;6.00
66403;BMP180;53212;52.112;5.144;2023-04-25T05:59:53;101273.20;;;6.10
66403;BMP180;53212;52.112;5.144;2023-04-25T06:02:20;101274.40;;;6.20
66403;BMP180;53212;52.112;5.144;2023-04-25T06:04:50;101278.20;;;6.30
66403;BMP180;53212;52.112;5.144;2023-04-25T06:07:17;101278.80;;;6.40
66403;BMP180;53212;52.112;5.144;2023-04-25T06:09:43;101282.00;;;6.50
66403;BMP180;53212;52.112;5.144;2023-04-25T06:12:09;101283.00;;;6.58
66403;BMP180;53212;52.112;5.144;2023-04-25T06:14:34;101289.80;;;6.60
66403;BMP180;53212;52.112;5.144;2023-04-25T06:17:00;101287.20;;;6.70
66403;BMP180;53212;52.112;5.144;2023-04-25T06:19:32;101293.60;;;6.72
66403;BMP180;53212;52.112;5.144;2023-04-25T06:21:58;101295.80;;;7.16
66403;BMP180;53212;52.112;5.144;2023-04-25T06:24:24;101294.20;;;7.60
66403;BMP180;53212;52.112;5.144;2023-04-25T06:26:49;101294.80;;;8.10
66403;BMP180;53212;52.112;5.144;2023-04-25T06:29:15;101300.00;;;8.48
66403;BMP180;53212;52.112;5.144;2023-04-25T06:31:40;101299.80;;;8.80
66403;BMP180;53212;52.112;5.144;2023-04-25T06:34:06;101302.60;;;9.16
66403;BMP180;53212;52.112;5.144;2023-04-25T06:36:31;101303.80;;;9.50
66403;BMP180;53212;52.112;5.144;2023-04-25T06:38:57;101307.40;;;9.70
66403;BMP180;53212;52.112;5.144;2023-04-25T06:41:22;101308.20;;;10.00
66403;BMP180;53212;52.112;5.144;2023-04-25T06:43:47;101309.20;;;10.06
66403;BMP180;53212;52.112;5.144;2023-04-25T06:46:13;101316.60;;;10.20
66403;BMP180;53212;52.112;5.144;2023-04-25T06:48:38;101313.80;;;10.02
66403;BMP180;53212;52.112;5.144;2023-04-25T06:51:04;101322.00;;;9.80
66403;BMP180;53212;52.112;5.144;2023-04-25T06:53:29;101325.80;;;9.80
66403;BMP180;53212;52.112;5.144;2023-04-25T06:55:55;101325.60;;;9.80
66403;BMP180;53212;52.112;5.144;2023-04-25T06:58:20;101332.80;;;9.90
66403;BMP180;53212;52.112;5.144;2023-04-25T07:00:46;101329.80;;;9.98
66403;BMP180;53212;52.112;5.144;2023-04-25T07:03:11;101325.00;;;10.10
66403;BMP180;53212;52.112;5.144;2023-04-25T07:05:37;101326.00;;;10.20
66403;BMP180;53212;52.112;5.144;2023-04-25T07:08:02;101332.80;;;10.30
66403;BMP180;53212;52.112;5.144;2023-04-25T07:10:28;101337.60;;;10.20
66403;BMP180;53212;52.112;5.144;2023-04-25T07:12:54;101341.20;;;9.90
66403;BMP180;53212;52.112;5.144;2023-04-25T07:15:19;101341.40;;;9.76
66403;BMP180;53212;52.112;5.144;2023-04-25T07:17:45;101346.20;;;9.68
66403;BMP180;53212;52.112;5.144;2023-04-25T07:20:10;101352.00;;;9.50
66403;BMP180;53212;52.112;5.144;2023-04-25T07:22:36;101352.20;;;9.30
66403;BMP180;53212;52.112;5.144;2023-04-25T07:25:02;101350.80;;;9.20
66403;BMP180;53212;52.112;5.144;2023-04-25T07:27:29;101355.60;;;9.10
66403;BMP180;53212;52.112;5.144;2023-04-25T07:29:54;101356.80;;;8.90
66403;BMP180;53212;52.112;5.144;2023-04-25T07:32:20;101356.40;;;8.68
66403;BMP180;53212;52.112;5.144;2023-04-25T07:34:45;101362.00;;;8.58
66403;BMP180;53212;52.112;5.144;2023-04-25T07:37:11;101367.40;;;8.50
66403;BMP180;53212;52.112;5.144;2023-04-25T07:39:36;101369.60;;;8.50
66403;BMP180;53212;52.112;5.144;2023-04-25T07:42:03;101373.00;;;8.60
66403;BMP180;53212;52.112;5.144;2023-04-25T07:44:29;101377.40;;;8.78
66403;BMP180;53212;52.112;5.144;2023-04-25T07:46:56;101375.60;;;8.90
66403;BMP180;53212;52.112;5.144;2023-04-25T07:49:21;101375.00;;;9.00
66403;BMP180;53212;52.112;5.144;2023-04-25T07:51:47;101378.80;;;9.00
66403;BMP180;53212;52.112;5.144;2023-04-25T07:54:14;101386.20;;;9.00
66403;BMP180;53212;52.112;5.144;2023-04-25T07:56:41;101381.60;;;9.00
66403;BMP180;53212;52.112;5.144;2023-04-25T07:59:06;101383.60;;;9.00
66403;BMP180;53212;52.112;5.144;2023-04-25T08:01:33;101387.20;;;9.00
66403;BMP180;53212;52.112;5.144;2023-04-25T08:03:59;101394.20;;;8.92
66403;BMP180;53212;52.112;5.144;2023-04-25T08:06:24;101397.40;;;8.82
66403;BMP180;53212;52.112;5.144;2023-04-25T08:08:50;101401.00;;;8.70
66403;BMP180;53212;52.112;5.144;2023-04-25T08:11:15;101406.00;;;8.70
66403;BMP180;53212;52.112;5.144;2023-04-25T08:13:41;101413.60;;;8.70
66403;BMP180;53212;52.112;5.144;2023-04-25T08:16:06;101408.00;;;8.70
66403;BMP180;53212;52.112;5.144;2023-04-25T08:18:32;101407.80;;;8.80
66403;BMP180;53212;52.112;5.144;2023-04-25T08:20:57;101412.20;;;8.98
66403;BMP180;53212;52.112;5.144;2023-04-25T08:23:22;101412.40;;;9.22
66403;BMP180;53212;52.112;5.144;2023-04-25T08:25:48;101417.40;;;9.50
66403;BMP180;53212;52.112;5.144;2023-04-25T08:28:14;101427.20;;;9.52
66403;BMP180;53212;52.112;5.144;2023-04-25T08:30:40;101436.40;;;9.40
66403;BMP180;53212;52.112;5.144;2023-04-25T08:33:06;101440.60;;;9.10
66403;BMP180;53212;52.112;5.144;2023-04-25T08:35:31;101440.00;;;8.96
66403;BMP180;53212;52.112;5.144;2023-04-25T08:37:58;101442.80;;;8.80
66403;BMP180;53212;52.112;5.144;2023-04-25T08:40:26;101447.60;;;8.70
66403;BMP180;53212;52.112;5.144;2023-04-25T08:42:54;101451.80;;;8.64
66403;BMP180;53212;52.112;5.144;2023-04-25T08:45:21;101456.80;;;8.60
66403;BMP180;53212;52.112;5.144;2023-04-25T08:47:47;101455.20;;;8.72
66403;BMP180;53212;52.112;5.144;2023-04-25T08:50:13;101460.20;;;8.98
66403;BMP180;53212;52.112;5.144;2023-04-25T08:52:49;101463.00;;;9.02
66403;BMP180;53212;52.112;5.144;2023-04-25T08:55:18;101467.00;;;9.00
66403;BMP180;53212;52.112;5.144;2023-04-25T08:57:44;101472.20;;;9.00
66403;BMP180;53212;52.112;5.144;2023-04-25T09:00:12;101483.20;;;9.10
66403;BMP180;53212;52.112;5.144;2023-04-25T09:02:39;101482.20;;;9.10
66403;BMP180;53212;52.112;5.144;2023-04-25T09:05:06;101483.80;;;9.10
66403;BMP180;53212;52.112;5.144;2023-04-25T09:07:32;101479.00;;;9.10
66403;BMP180;53212;52.112;5.144;2023-04-25T09:09:58;101480.80;;;9.20
66403;BMP180;53212;52.112;5.144;2023-04-25T09:12:29;101483.60;;;9.26
66403;BMP180;53212;52.112;5.144;2023-04-25T09:15:09;101482.80;;;9.40
66403;BMP180;53212;52.112;5.144;2023-04-25T09:17:35;101485.00;;;9.56
66403;BMP180;53212;52.112;5.144;2023-04-25T09:20:13;101496.00;;;9.88
66403;BMP180;53212;52.112;5.144;2023-04-25T09:22:38;101500.20;;;10.30
66403;BMP180;53212;52.112;5.144;2023-04-25T09:25:13;101499.00;;;10.70
66403;BMP180;53212;52.112;5.144;2023-04-25T09:27:51;101491.00;;;10.90
66403;BMP180;53212;52.112;5.144;2023-04-25T09:30:17;101507.00;;;11.10
66403;BMP180;53212;52.112;5.144;2023-04-25T09:32:43;101502.40;;;11.06
66403;BMP180;53212;52.112;5.144;2023-04-25T09:35:10;101505.80;;;11.20
66403;BMP180;53212;52.112;5.144;2023-04-25T09:37:36;101513.00;;;11.20
66403;BMP180;53212;52.112;5.144;2023-04-25T09:40:06;101514.40;;;11.28
66403;BMP180;53212;52.112;5.144;2023-04-25T09:42:33;101519.00;;;11.20
66403;BMP180;53212;52.112;5.144;2023-04-25T09:45:00;101519.20;;;11.00
66403;BMP180;53212;52.112;5.144;2023-04-25T09:47:29;101529.00;;;10.90
66403;BMP180;53212;52.112;5.144;2023-04-25T09:49:54;101529.40;;;10.90
66403;BMP180;53212;52.112;5.144;2023-04-25T09:52:22;101542.40;;;10.90
66403;BMP180;53212;52.112;5.144;2023-04-25T09:54:50;101541.60;;;10.98
66403;BMP180;53212;52.112;5.144;2023-04-25T09:57:21;101547.40;;;11.10
66403;BMP180;53212;52.112;5.144;2023-04-25T09:59:56;101545.40;;;11.22
66403;BMP180;53212;52.112;5.144;2023-04-25T10:02:24;101546.40;;;11.40
66403;BMP180;53212;52.112;5.144;2023-04-25T10:04:54;101548.00;;;11.34
66403;BMP180;53212;52.112;5.144;2023-04-25T10:07:30;101554.40;;;11.00
66403;BMP180;53212;52.112;5.144;2023-04-25T10:10:01;101550.80;;;10.90
66403;BMP180;53212;52.112;5.144;2023-04-25T10:12:28;101554.80;;;10.98
66403;BMP180;53212;52.112;5.144;2023-04-25T10:14:54;101565.00;;;11.10
66403;BMP180;53212;52.112;5.144;2023-04-25T10:17:20;101563.40;;;11.28
66403;BMP180;53212;52.112;5.144;2023-04-25T10:19:49;101566.20;;;11.30
66403;BMP180;53212;52.112;5.144;2023-04-25T10:22:23;101556.40;;;11.20
66403;BMP180;53212;52.112;5.144;2023-04-25T10:24:51;101557.40;;;11.46
66403;BMP180;53212;52.112;5.144;2023-04-25T10:27:19;101566.60;;;11.74
66403;BMP180;53212;52.112;5.144;2023-04-25T10:30:00;101560.20;;;12.00
66403;BMP180;53212;52.112;5.144;2023-04-25T10:32:25;101560.60;;;12.20
66403;BMP180;53212;52.112;5.144;2023-04-25T10:34:51;101565.60;;;12.20
66403;BMP180;53212;52.112;5.144;2023-04-25T10:37:18;101552.80;;;12.02
66403;BMP180;53212;52.112;5.144;2023-04-25T10:39:44;101567.80;;;12.00
66403;BMP180;53212;52.112;5.144;2023-04-25T10:42:11;101572.20;;;11.90
66403;BMP180;53212;52.112;5.144;2023-04-25T10:44:38;101571.00;;;11.70
66403;BMP180;53212;52.112;5.144;2023-04-25T10:47:07;101574.80;;;11.60
66403;BMP180;53212;52.112;5.144;2023-04-25T10:49:41;101564.40;;;11.50
66403;BMP180;53212;52.112;5.144;2023-04-25T10:52:26;101563.20;;;11.56
66403;BMP180;53212;52.112;5.144;2023-04-25T10:54:56;101567.60;;;11.70
66403;BMP180;53212;52.112;5.144;2023-04-25T10:57:36;101560.20;;;11.90
66403;BMP180;53212;52.112;5.144;2023-04-25T11:00:20;101572.40;;;11.90
66403;BMP180;53212;52.112;5.144;2023-04-25T11:02:59;101576.60;;;11.80
66403;BMP180;53212;52.112;5.144;2023-04-25T11:05:38;101568.60;;;12.00
66403;BMP180;53212;52.112;5.144;2023-04-25T11:08:11;101590.20;;;12.28
66403;BMP180;53212;52.112;5.144;2023-04-25T11:10:39;101596.40;;;12.30
66403;BMP180;53212;52.112;5.144;2023-04-25T11:13:05;101600.60;;;12.20
66403;BMP180;53212;52.112;5.144;2023-04-25T11:15:30;101598.20;;;12.00
66403;BMP180;53212;52.112;5.144;2023-04-25T11:17:56;101601.60;;;11.90
66403;BMP180;53212;52.112;5.144;2023-04-25T11:20:24;101607.00;;;11.84
66403;BMP180;53212;52.112;5.144;2023-04-25T11:22:51;101598.40;;;11.70
66403;BMP180;53212;52.112;5.144;2023-04-25T11:25:16;101605.80;;;11.50
66403;BMP180;53212;52.112;5.144;2023-04-25T11:27:58;101602.00;;;11.24
66403;BMP180;53212;52.112;5.144;2023-04-25T11:30:26;101602.60;;;11.10
66403;BMP180;53212;52.112;5.144;2023-04-25T11:32:53;101603.80;;;11.10
66403;BMP180;53212;52.112;5.144;2023-04-25T11:35:20;101600.80;;;11.10
66403;BMP180;53212;52.112;5.144;2023-04-25T11:37:48;101605.00;;;11.10
66403;BMP180;53212;52.112;5.144;2023-04-25T11:40:16;101608.60;;;11.22
66403;BMP180;53212;52.112;5.144;2023-04-25T11:42:47;101610.20;;;11.40
66403;BMP180;53212;52.112;5.144;2023-04-25T11:45:14;101623.20;;;11.66
66403;BMP180;53212;52.112;5.144;2023-04-25T11:47:40;101635.40;;;11.82
66403;BMP180;53212;52.112;5.144;2023-04-25T11:50:07;101636.40;;;11.50
66403;BMP180;53212;52.112;5.144;2023-04-25T11:52:42;101635.20;;;11.30
66403;BMP180;53212;52.112;5.144;2023-04-25T11:55:17;101650.20;;;11.40
66403;BMP180;53212;52.112;5.144;2023-04-25T11:57:44;101646.00;;;11.40
66403;BMP180;53212;52.112;5.144;2023-04-25T12:00:15;101644.20;;;11.68
66403;BMP180;53212;52.112;5.144;2023-04-25T12:02:47;101642.60;;;11.70
66403;BMP180;53212;52.112;5.144;2023-04-25T12:05:15;101649.80;;;11.56
66403;BMP180;53212;52.112;5.144;2023-04-25T12:07:42;101654.20;;;11.34
66403;BMP180;53212;52.112;5.144;2023-04-25T12:10:11;101655.40;;;11.08
66403;BMP180;53212;52.112;5.144;2023-04-25T12:12:37;101655.20;;;10.90
66403;BMP180;53212;52.112;5.144;2023-04-25T12:15:13;101658.00;;;10.70
66403;BMP180;53212;52.112;5.144;2023-04-25T12:17:41;101654.20;;;10.60
66403;BMP180;53212;52.112;5.144;2023-04-25T12:20:10;101649.60;;;10.50
66403;BMP180;53212;52.112;5.144;2023-04-25T12:22:36;101652.20;;;10.60
66403;BMP180;53212;52.112;5.144;2023-04-25T12:25:04;101649.80;;;10.58
66403;BMP180;53212;52.112;5.144;2023-04-25T12:27:31;101654.80;;;10.62
66403;BMP180;53212;52.112;5.144;2023-04-25T12:29:57;101644.60;;;10.70
66403;BMP180;53212;52.112;5.144;2023-04-25T12:32:24;101650.20;;;10.80
66403;BMP180;53212;52.112;5.144;2023-04-25T12:34:50;101647.20;;;10.90
66403;BMP180;53212;52.112;5.144;2023-04-25T12:37:15;101646.40;;;11.00
66403;BMP180;53212;52.112;5.144;2023-04-25T12:39:41;101642.20;;;11.10
66403;BMP180;53212;52.112;5.144;2023-04-25T12:42:07;101645.20;;;11.14
66403;BMP180;53212;52.112;5.144;2023-04-25T12:44:38;101657.20;;;11.40
66403;BMP180;53212;52.112;5.144;2023-04-25T12:47:04;101644.60;;;11.50
66403;BMP180;53212;52.112;5.144;2023-04-25T12:49:30;101648.80;;;11.50
66403;BMP180;53212;52.112;5.144;2023-04-25T12:51:56;101649.00;;;11.50
66403;BMP180;53212;52.112;5.144;2023-04-25T12:54:21;101651.40;;;11.46
66403;BMP180;53212;52.112;5.144;2023-04-25T12:56:46;101657.00;;;11.50
66403;BMP180;53212;52.112;5.144;2023-04-25T12:59:12;101660.60;;;11.60
66403;BMP180;53212;52.112;5.144;2023-04-25T13:01:37;101651.20;;;11.70
66403;BMP180;53212;52.112;5.144;2023-04-25T13:04:03;101652.40;;;11.90
66403;BMP180;53212;52.112;5.144;2023-04-25T13:06:29;101645.80;;;12.10
66403;BMP180;53212;52.112;5.144;2023-04-25T13:08:57;101653.60;;;11.98
66403;BMP180;53212;52.112;5.144;2023-04-25T13:11:22;101654.60;;;11.80
66403;BMP180;53212;52.112;5.144;2023-04-25T13:13:48;101661.40;;;11.80
66403;BMP180;53212;52.112;5.144;2023-04-25T13:16:13;101658.20;;;11.40
66403;BMP180;53212;52.112;5.144;2023-04-25T13:18:39;101658.40;;;11.12
66403;BMP180;53212;52.112;5.144;2023-04-25T13:21:05;101658.40;;;11.18
66403;BMP180;53212;52.112;5.144;2023-04-25T13:23:31;101659.80;;;11.10
66403;BMP180;53212;52.112;5.144;2023-04-25T13:25:57;101657.40;;;11.16
66403;BMP180;53212;52.112;5.144;2023-04-25T13:28:27;101655.80;;;11.20
66403;BMP180;53212;52.112;5.144;2023-04-25T13:30:53;101654.20;;;11.30
66403;BMP180;53212;52.112;5.144;2023-04-25T13:33:20;101656.40;;;11.30
66403;BMP180;53212;52.112;5.144;2023-04-25T13:35:47;101652.00;;;11.10
66403;BMP180;53212;52.112;5.144;2023-04-25T13:38:22;101662.60;;;11.00
66403;BMP180;53212;52.112;5.144;2023-04-25T13:40:49;101656.60;;;11.10
66403;BMP180;53212;52.112;5.144;2023-04-25T13:43:15;101666.80;;;11.04
66403;BMP180;53212;52.112;5.144;2023-04-25T13:45:41;101668.20;;;10.90
66403;BMP180;53212;52.112;5.144;2023-04-25T13:48:07;101670.80;;;10.80
66403;BMP180;53212;52.112;5.144;2023-04-25T13:50:32;101671.40;;;10.84
66403;BMP180;53212;52.112;5.144;2023-04-25T13:52:57;101665.40;;;10.90
66403;BMP180;53212;52.112;5.144;2023-04-25T13:55:23;101668.40;;;11.20
66403;BMP180;53212;52.112;5.144;2023-04-25T13:57:48;101665.20;;;11.40
66403;BMP180;53212;52.112;5.144;2023-04-25T14:00:14;101678.80;;;11.70
66403;BMP180;53212;52.112;5.144;2023-04-25T14:02:40;101671.00;;;11.70